sensor_id;sensor_type;location;lat;lon;timestamp;pressure;altitude;pressure_sealevel;temperature;humidity
9676;BME280;4876;42.656;23.292;2023-07-20T00:00:06;94086.47;;;24.03;60.69
9676;BME280;4876;42.656;23.292;2023-07-20T00:02:33;94086.16;;;24.32;59.82
9676;BME280;4876;42.656;23.292;2023-07-20T00:05:00;94074.69;;;24.58;59.39
9676;BME280;4876;42.656;23.292;2023-07-20T00:07:27;94089.41;;;24.16;59.79
9676;BME280;4876;42.656;23.292;2023-07-20T00:09:54;94067.88;;;24.20;60.35
9676;BME280;4876;42.656;23.292;2023-07-20T00:12:22;94073.69;;;24.14;60.11
9676;BME280;4876;42.656;23.292;2023-07-20T00:14:49;94061.72;;;24.19;59.68
9676;BME280;4876;42.656;23.292;2023-07-20T00:17:19;94078.13;;;23.98;60.09
9676;BME280;4876;42.656;23.292;2023-07-20T00:19:46;94087.88;;;23.81;60.90
9676;BME280;4876;42.656;23.292;2023-07-20T00:22:13;94090.53;;;23.43;62.62
9676;BME280;4876;42.656;23.292;2023-07-20T00:24:40;94087.66;;;23.23;62.42
9676;BME280;4876;42.656;23.292;2023-07-20T00:27:06;94098.25;;;23.34;63.21
9676;BME280;4876;42.656;23.292;2023-07-20T00:29:35;94099.38;;;23.40;63.34
9676;BME280;4876;42.656;23.292;2023-07-20T00:32:02;94101.34;;;23.36;64.07
9676;BME280;4876;42.656;23.292;2023-07-20T00:34:31;94103.06;;;23.53;63.46
9676;BME280;4876;42.656;23.292;2023-07-20T00:36:58;94097.50;;;23.78;62.03
9676;BME280;4876;42.656;23.292;2023-07-20T00:39:25;94107.63;;;24.01;61.08
9676;BME280;4876;42.656;23.292;2023-07-20T00:41:52;94107.38;;;24.23;60.50
9676;BME280;4876;42.656;23.292;2023-07-20T00:44:19;94094.59;;;24.34;60.31
9676;BME280;4876;42.656;23.292;2023-07-20T00:46:47;94086.66;;;24.54;59.46
9676;BME280;4876;42.656;23.292;2023-07-20T00:49:14;94076.59;;;24.58;59.35
9676;BME280;4876;42.656;23.292;2023-07-20T00:51:41;94078.28;;;24.48;59.69
9676;BME280;4876;42.656;23.292;2023-07-20T00:54:08;94083.19;;;24.23;59.87
9676;BME280;4876;42.656;23.292;2023-07-20T00:56:35;94063.88;;;24.31;59.65
9676;BME280;4876;42.656;23.292;2023-07-20T00:59:02;94071.75;;;24.49;58.87
9676;BME280;4876;42.656;23.292;2023-07-20T01:01:29;94070.91;;;24.52;58.96
9676;BME280;4876;42.656;23.292;2023-07-20T01:03:58;94063.31;;;24.74;59.20
9676;BME280;4876;42.656;23.292;2023-07-20T01:06:31;94062.00;;;24.59;59.80
9676;BME280;4876;42.656;23.292;2023-07-20T01:09:11;94037.41;;;23.99;61.71
9676;BME280;4876;42.656;23.292;2023-07-20T01:11:43;94085.50;;;24.21;61.31
9676;BME280;4876;42.656;23.292;2023-07-20T01:14:14;94081.06;;;24.07;61.32
9676;BME280;4876;42.656;23.292;2023-07-20T01:16:41;94077.34;;;24.28;61.54
9676;BME280;4876;42.656;23.292;2023-07-20T01:19:09;94064.28;;;24.60;60.46
9676;BME280;4876;42.656;23.292;2023-07-20T01:21:41;94076.34;;;24.76;59.97
9676;BME280;4876;42.656;23.292;2023-07-20T01:24:35;94071.88;;;24.65;60.49
9676;BME280;4876;42.656;23.292;2023-07-20T01:30:16;94083.63;;;24.17;61.61
9676;BME280;4876;42.656;23.292;2023-07-20T01:32:52;94080.97;;;23.42;65.39
9676;BME280;4876;42.656;23.292;2023-07-20T01:35:23;94080.44;;;23.09;67.17
9676;BME280;4876;42.656;23.292;2023-07-20T01:37:53;94071.44;;;22.82;68.12
9676;BME280;4876;42.656;23.292;2023-07-20T01:40:22;94081.41;;;22.78;68.80
9676;BME280;4876;42.656;23.292;2023-07-20T01:42:50;94036.06;;;22.49;69.20
9676;BME280;4876;42.656;23.292;2023-07-20T01:45:18;94079.47;;;22.89;68.81
9676;BME280;4876;42.656;23.292;2023-07-20T01:47:45;94070.63;;;22.85;68.83
9676;BME280;4876;42.656;23.292;2023-07-20T01:50:13;94074.75;;;23.04;68.80
9676;BME280;4876;42.656;23.292;2023-07-20T01:52:40;94073.94;;;23.10;68.37
9676;BME280;4876;42.656;23.292;2023-07-20T01:55:07;94065.84;;;23.18;68.31
9676;BME280;4876;42.656;23.292;2023-07-20T01:57:34;94075.00;;;23.20;68.47
9676;BME280;4876;42.656;23.292;2023-07-20T02:00:01;94071.91;;;23.22;68.28
9676;BME280;4876;42.656;23.292;2023-07-20T02:02:28;94070.75;;;23.23;67.90
9676;BME280;4876;42.656;23.292;2023-07-20T02:04:55;94067.84;;;23.06;68.37
9676;BME280;4876;42.656;23.292;2023-07-20T02:07:23;94065.34;;;22.78;69.29
9676;BME280;4876;42.656;23.292;2023-07-20T02:09:50;94066.59;;;22.63;69.87
9676;BME280;4876;42.656;23.292;2023-07-20T02:12:16;94062.16;;;22.35;70.80
9676;BME280;4876;42.656;23.292;2023-07-20T02:14:43;94054.06;;;22.42;71.31
9676;BME280;4876;42.656;23.292;2023-07-20T02:17:10;94063.66;;;22.43;71.42
9676;BME280;4876;42.656;23.292;2023-07-20T02:19:37;94067.00;;;22.54;71.57
9676;BME280;4876;42.656;23.292;2023-07-20T02:22:04;94062.28;;;22.76;70.62
9676;BME280;4876;42.656;23.292;2023-07-20T02:24:33;94065.34;;;22.78;70.04
9676;BME280;4876;42.656;23.292;2023-07-20T02:27:00;94069.13;;;22.84;69.47
9676;BME280;4876;42.656;23.292;2023-07-20T02:29:27;94059.91;;;22.85;69.79
9676;BME280;4876;42.656;23.292;2023-07-20T02:31:54;94056.78;;;22.97;69.87
9676;BME280;4876;42.656;23.292;2023-07-20T02:34:21;94062.47;;;23.06;69.22
9676;BME280;4876;42.656;23.292;2023-07-20T02:36:47;94059.38;;;23.12;69.13
9676;BME280;4876;42.656;23.292;2023-07-20T02:39:14;94057.94;;;23.41;67.54
9676;BME280;4876;42.656;23.292;2023-07-20T02:41:42;94052.47;;;23.52;66.59
9676;BME280;4876;42.656;23.292;2023-07-20T02:44:09;94047.94;;;23.45;67.14
9676;BME280;4876;42.656;23.292;2023-07-20T02:46:36;94041.41;;;23.46;67.00
9676;BME280;4876;42.656;23.292;2023-07-20T02:49:03;94048.88;;;23.69;66.97
9676;BME280;4876;42.656;23.292;2023-07-20T02:51:29;94039.97;;;23.79;66.01
9676;BME280;4876;42.656;23.292;2023-07-20T02:53:56;94031.84;;;23.83;65.64
9676;BME280;4876;42.656;23.292;2023-07-20T02:56:23;94033.25;;;23.95;65.35
9676;BME280;4876;42.656;23.292;2023-07-20T02:58:51;94040.09;;;23.99;65.30
9676;BME280;4876;42.656;23.292;2023-07-20T03:01:18;94030.03;;;24.07;64.83
9676;BME280;4876;42.656;23.292;2023-07-20T03:03:45;94026.56;;;24.06;64.39
9676;BME280;4876;42.656;23.292;2023-07-20T03:06:13;94037.03;;;24.28;64.24
9676;BME280;4876;42.656;23.292;2023-07-20T03:08:40;94035.06;;;24.35;63.64
9676;BME280;4876;42.656;23.292;2023-07-20T03:11:12;94037.69;;;24.39;63.24
9676;BME280;4876;42.656;23.292;2023-07-20T03:13:39;94040.75;;;24.41;63.25
9676;BME280;4876;42.656;23.292;2023-07-20T03:16:07;94043.78;;;24.43;63.04
9676;BME280;4876;42.656;23.292;2023-07-20T03:18:36;94054.19;;;24.41;62.47
9676;BME280;4876;42.656;23.292;2023-07-20T03:21:04;94058.31;;;24.49;62.44
9676;BME280;4876;42.656;23.292;2023-07-20T03:23:31;94054.53;;;24.43;62.84
9676;BME280;4876;42.656;23.292;2023-07-20T03:25:58;94062.16;;;24.48;62.42
9676;BME280;4876;42.656;23.292;2023-07-20T03:28:24;94063.22;;;24.54;61.99
9676;BME280;4876;42.656;23.292;2023-07-20T03:30:53;94064.59;;;24.66;61.64
9676;BME280;4876;42.656;23.292;2023-07-20T03:33:24;94059.00;;;24.80;61.26
9676;BME280;4876;42.656;23.292;2023-07-20T03:35:52;94056.84;;;24.95;60.62
9676;BME280;4876;42.656;23.292;2023-07-20T03:38:19;94051.34;;;25.06;60.20
9676;BME280;4876;42.656;23.292;2023-07-20T03:40:50;94061.75;;;25.27;60.35
9676;BME280;4876;42.656;23.292;2023-07-20T03:43:17;94061.91;;;25.40;59.43
9676;BME280;4876;42.656;23.292;2023-07-20T03:45:44;94062.56;;;25.47;59.40
9676;BME280;4876;42.656;23.292;2023-07-20T03:48:13;94062.34;;;25.58;59.19
9676;BME280;4876;42.656;23.292;2023-07-20T03:50:41;94069.38;;;25.75;58.93
9676;BME280;4876;42.656;23.292;2023-07-20T03:53:08;94070.84;;;26.00;58.57
9676;BME280;4876;42.656;23.292;2023-07-20T03:55:35;94064.59;;;25.63;59.74
9676;BME280;4876;42.656;23.292;2023-07-20T03:58:02;94057.72;;;26.02;58.43
9676;BME280;4876;42.656;23.292;2023-07-20T04:00:29;94070.28;;;26.28;57.69
9676;BME280;4876;42.656;23.292;2023-07-20T04:02:55;94080.84;;;26.39;57.10
9676;BME280;4876;42.656;23.292;2023-07-20T04:05:22;94073.59;;;26.56;56.80
9676;BME280;4876;42.656;23.292;2023-07-20T04:07:50;94060.47;;;26.74;55.97
9676;BME280;4876;42.656;23.292;2023-07-20T04:10:17;94056.66;;;26.36;57.94
9676;BME280;4876;42.656;23.292;2023-07-20T04:12:44;94051.50;;;26.25;57.99
9676;BME280;4876;42.656;23.292;2023-07-20T04:15:12;94053.00;;;26.26;57.77
9676;BME280;4876;42.656;23.292;2023-07-20T04:17:39;94050.88;;;26.17;58.18
9676;BME280;4876;42.656;23.292;2023-07-20T04:20:08;94046.47;;;25.87;58.56
9676;BME280;4876;42.656;23.292;2023-07-20T04:22:35;94053.53;;;25.58;59.80
9676;BME280;4876;42.656;23.292;2023-07-20T04:25:04;94050.09;;;25.34;60.22
9676;BME280;4876;42.656;23.292;2023-07-20T04:27:30;94042.53;;;25.02;61.27
9676;BME280;4876;42.656;23.292;2023-07-20T04:29:58;94037.72;;;24.89;61.27
9676;BME280;4876;42.656;23.292;2023-07-20T04:32:25;94047.25;;;24.94;61.48
9676;BME280;4876;42.656;23.292;2023-07-20T04:34:52;94043.03;;;24.69;61.94
9676;BME280;4876;42.656;23.292;2023-07-20T04:37:18;94047.53;;;24.76;62.26
9676;BME280;4876;42.656;23.292;2023-07-20T04:39:45;94038.16;;;24.61;63.50
9676;BME280;4876;42.656;23.292;2023-07-20T04:42:13;94043.34;;;24.17;65.27
9676;BME280;4876;42.656;23.292;2023-07-20T04:44:40;94038.84;;;24.07;65.44
9676;BME280;4876;42.656;23.292;2023-07-20T04:47:07;94041.84;;;24.13;65.69
9676;BME280;4876;42.656;23.292;2023-07-20T04:49:34;94037.31;;;24.06;66.26
9676;BME280;4876;42.656;23.292;2023-07-20T04:52:02;94036.13;;;24.11;66.74
9676;BME280;4876;42.656;23.292;2023-07-20T04:54:29;94036.22;;;24.34;65.92
9676;BME280;4876;42.656;23.292;2023-07-20T04:56:56;94039.38;;;24.26;65.89
9676;BME280;4876;42.656;23.292;2023-07-20T04:59:24;94042.06;;;23.95;66.89
9676;BME280;4876;42.656;23.292;2023-07-20T05:01:50;94032.13;;;24.23;65.85
9676;BME280;4876;42.656;23.292;2023-07-20T05:04:18;94033.91;;;24.36;65.65
9676;BME280;4876;42.656;23.292;2023-07-20T05:06:45;94031.34;;;24.22;65.54
9676;BME280;4876;42.656;23.292;2023-07-20T05:09:11;94033.47;;;24.38;65.42
9676;BME280;4876;42.656;23.292;2023-07-20T05:11:38;94033.13;;;24.63;64.42
9676;BME280;4876;42.656;23.292;2023-07-20T05:14:05;94036.84;;;24.96;63.41
9676;BME280;4876;42.656;23.292;2023-07-20T05:16:33;94048.75;;;24.71;63.73
9676;BME280;4876;42.656;23.292;2023-07-20T05:19:00;94037.31;;;24.67;63.41
9676;BME280;4876;42.656;23.292;2023-07-20T05:21:27;94039.75;;;24.82;63.70
9676;BME280;4876;42.656;23.292;2023-07-20T05:23:53;94046.63;;;24.86;64.60
9676;BME280;4876;42.656;23.292;2023-07-20T05:26:20;94046.47;;;25.20;62.30
9676;BME280;4876;42.656;23.292;2023-07-20T05:28:47;94049.16;;;25.20;61.74
9676;BME280;4876;42.656;23.292;2023-07-20T05:31:14;94057.22;;;25.44;60.10
9676;BME280;4876;42.656;23.292;2023-07-20T05:33:42;94057.97;;;24.70;63.45
9676;BME280;4876;42.656;23.292;2023-07-20T05:36:27;94053.38;;;24.98;63.11
9676;BME280;4876;42.656;23.292;2023-07-20T05:38:53;94055.81;;;25.59;60.54
9676;BME280;4876;42.656;23.292;2023-07-20T05:41:20;94063.06;;;26.06;58.60
9676;BME280;4876;42.656;23.292;2023-07-20T05:43:48;94075.59;;;25.72;60.50
9676;BME280;4876;42.656;23.292;2023-07-20T05:46:14;94074.03;;;25.95;58.77
9676;BME280;4876;42.656;23.292;2023-07-20T05:48:43;94071.13;;;25.86;59.13
9676;BME280;4876;42.656;23.292;2023-07-20T05:51:09;94072.50;;;25.94;58.39
9676;BME280;4876;42.656;23.292;2023-07-20T05:53:36;94081.50;;;26.47;57.30
9676;BME280;4876;42.656;23.292;2023-07-20T05:56:03;94073.47;;;26.23;58.08
9676;BME280;4876;42.656;23.292;2023-07-20T05:58:30;94071.38;;;26.51;57.19
9676;BME280;4876;42.656;23.292;2023-07-20T06:00:57;94063.50;;;26.60;55.97
9676;BME280;4876;42.656;23.292;2023-07-20T06:03:24;94068.53;;;26.58;55.86
9676;BME280;4876;42.656;23.292;2023-07-20T06:05:52;94068.41;;;26.65;55.53
9676;BME280;4876;42.656;23.292;2023-07-20T06:08:24;94063.56;;;26.37;56.10
9676;BME280;4876;42.656;23.292;2023-07-20T06:10:51;94066.69;;;26.55;55.23
9676;BME280;4876;42.656;23.292;2023-07-20T06:13:18;94065.97;;;26.71;56.19
9676;BME280;4876;42.656;23.292;2023-07-20T06:15:44;94070.00;;;27.77;54.39
9676;BME280;4876;42.656;23.292;2023-07-20T06:18:12;94066.69;;;28.27;52.48
9676;BME280;4876;42.656;23.292;2023-07-20T06:20:39;94062.19;;;28.50;51.45
9676;BME280;4876;42.656;23.292;2023-07-20T06:23:07;94048.88;;;28.55;52.08
9676;BME280;4876;42.656;23.292;2023-07-20T06:25:34;94041.97;;;28.54;51.67
9676;BME280;4876;42.656;23.292;2023-07-20T06:28:01;94048.13;;;28.55;50.42
9676;BME280;4876;42.656;23.292;2023-07-20T06:30:29;94042.72;;;28.55;50.63
9676;BME280;4876;42.656;23.292;2023-07-20T06:32:56;94039.16;;;28.45;50.11
9676;BME280;4876;42.656;23.292;2023-07-20T06:35:23;94042.19;;;27.76;51.83
9676;BME280;4876;42.656;23.292;2023-07-20T06:37:49;94047.13;;;27.65;51.64
9676;BME280;4876;42.656;23.292;2023-07-20T06:40:18;94044.81;;;28.09;51.60
9676;BME280;4876;42.656;23.292;2023-07-20T06:42:45;94042.34;;;27.85;51.38
9676;BME280;4876;42.656;23.292;2023-07-20T06:45:11;94040.91;;;27.52;52.24
9676;BME280;4876;42.656;23.292;2023-07-20T06:47:39;94040.91;;;28.10;50.62
9676;BME280;4876;42.656;23.292;2023-07-20T06:50:06;94041.72;;;28.36;50.50
9676;BME280;4876;42.656;23.292;2023-07-20T06:52:33;94044.06;;;28.21;50.69
9676;BME280;4876;42.656;23.292;2023-07-20T06:55:00;94037.13;;;27.78;51.96
9676;BME280;4876;42.656;23.292;2023-07-20T06:57:28;94047.75;;;28.27;50.86
9676;BME280;4876;42.656;23.292;2023-07-20T06:59:55;94065.34;;;28.19;50.54
9676;BME280;4876;42.656;23.292;2023-07-20T07:02:22;94066.22;;;28.16;51.50
9676;BME280;4876;42.656;23.292;2023-07-20T07:04:49;94072.09;;;27.85;51.41
9676;BME280;4876;42.656;23.292;2023-07-20T07:07:15;94070.44;;;28.17;51.12
9676;BME280;4876;42.656;23.292;2023-07-20T07:09:42;94077.88;;;28.13;50.20
9676;BME280;4876;42.656;23.292;2023-07-20T07:12:09;94088.34;;;28.27;49.87
9676;BME280;4876;42.656;23.292;2023-07-20T07:14:37;94087.75;;;28.74;49.68
9676;BME280;4876;42.656;23.292;2023-07-20T07:17:04;94097.19;;;28.82;49.47
9676;BME280;4876;42.656;23.292;2023-07-20T07:19:31;94103.13;;;28.52;50.36
9676;BME280;4876;42.656;23.292;2023-07-20T07:21:58;94112.19;;;28.16;52.05
9676;BME280;4876;42.656;23.292;2023-07-20T07:24:25;94114.59;;;28.14;52.95
9676;BME280;4876;42.656;23.292;2023-07-20T07:26:53;94117.47;;;28.07;53.02
9676;BME280;4876;42.656;23.292;2023-07-20T07:29:19;94116.34;;;28.21;52.41
9676;BME280;4876;42.656;23.292;2023-07-20T07:31:48;94111.88;;;28.14;53.64
9676;BME280;4876;42.656;23.292;2023-07-20T07:34:14;94090.06;;;27.92;54.01
9676;BME280;4876;42.656;23.292;2023-07-20T07:36:41;94106.25;;;28.63;52.13
9676;BME280;4876;42.656;23.292;2023-07-20T07:39:08;94096.97;;;28.22;52.75
9676;BME280;4876;42.656;23.292;2023-07-20T07:41:35;94097.59;;;28.55;52.62
9676;BME280;4876;42.656;23.292;2023-07-20T07:44:02;94098.78;;;28.41;53.44
9676;BME280;4876;42.656;23.292;2023-07-20T07:46:29;94104.47;;;28.02;54.79
9676;BME280;4876;42.656;23.292;2023-07-20T07:48:57;94081.16;;;28.75;53.17
9676;BME280;4876;42.656;23.292;2023-07-20T07:51:24;94071.00;;;28.92;53.24
9676;BME280;4876;42.656;23.292;2023-07-20T07:53:54;94057.50;;;29.39;52.65
9676;BME280;4876;42.656;23.292;2023-07-20T07:56:21;94055.94;;;29.04;52.66
9676;BME280;4876;42.656;23.292;2023-07-20T07:58:48;94070.03;;;28.99;54.08
9676;BME280;4876;42.656;23.292;2023-07-20T08:01:15;94048.72;;;29.01;54.33
9676;BME280;4876;42.656;23.292;2023-07-20T08:03:42;94059.19;;;28.73;53.49
9676;BME280;4876;42.656;23.292;2023-07-20T08:06:12;94079.78;;;29.09;53.36
9676;BME280;4876;42.656;23.292;2023-07-20T08:08:39;94099.47;;;28.29;55.46
9676;BME280;4876;42.656;23.292;2023-07-20T08:11:06;94115.19;;;28.34;54.76
9676;BME280;4876;42.656;23.292;2023-07-20T08:13:33;94126.75;;;28.06;55.88
9676;BME280;4876;42.656;23.292;2023-07-20T08:16:00;94128.19;;;27.65;57.25
9676;BME280;4876;42.656;23.292;2023-07-20T08:18:27;94112.66;;;27.69;57.44
9676;BME280;4876;42.656;23.292;2023-07-20T08:20:54;94127.50;;;27.77;57.11
9676;BME280;4876;42.656;23.292;2023-07-20T08:23:22;94135.25;;;27.26;57.86
9676;BME280;4876;42.656;23.292;2023-07-20T08:25:49;94131.00;;;26.93;55.58
9676;BME280;4876;42.656;23.292;2023-07-20T08:28:16;94121.91;;;27.03;55.60
9676;BME280;4876;42.656;23.292;2023-07-20T08:30:44;94119.22;;;27.03;55.28
9676;BME280;4876;42.656;23.292;2023-07-20T08:33:13;94125.97;;;26.75;52.85
9676;BME280;4876;42.656;23.292;2023-07-20T08:35:41;94137.47;;;26.79;54.64
9676;BME280;4876;42.656;23.292;2023-07-20T08:38:49;94125.44;;;26.83;53.64
9676;BME280;4876;42.656;23.292;2023-07-20T08:41:16;94118.16;;;26.80;54.10
9676;BME280;4876;42.656;23.292;2023-07-20T08:43:45;94133.75;;;26.89;53.99
9676;BME280;4876;42.656;23.292;2023-07-20T08:46:13;94129.78;;;27.14;52.48
9676;BME280;4876;42.656;23.292;2023-07-20T08:48:42;94125.31;;;27.07;52.75
9676;BME280;4876;42.656;23.292;2023-07-20T08:51:10;94122.94;;;27.25;52.15
9676;BME280;4876;42.656;23.292;2023-07-20T08:53:38;94115.63;;;27.42;50.93
9676;BME280;4876;42.656;23.292;2023-07-20T08:56:07;94121.59;;;27.50;50.57
9676;BME280;4876;42.656;23.292;2023-07-20T08:58:37;94114.03;;;27.28;51.55
9676;BME280;4876;42.656;23.292;2023-07-20T09:01:06;94113.53;;;27.33;52.66
9676;BME280;4876;42.656;23.292;2023-07-20T09:03:33;94100.66;;;27.05;53.05
9676;BME280;4876;42.656;23.292;2023-07-20T09:06:00;94103.03;;;27.35;52.57
9676;BME280;4876;42.656;23.292;2023-07-20T09:08:26;94100.69;;;27.70;51.43
9676;BME280;4876;42.656;23.292;2023-07-20T09:10:53;94106.72;;;27.74;50.75
9676;BME280;4876;42.656;23.292;2023-07-20T09:13:21;94097.28;;;27.50;51.64
9676;BME280;4876;42.656;23.292;2023-07-20T09:15:53;94100.34;;;27.52;51.43
9676;BME280;4876;42.656;23.292;2023-07-20T09:18:24;94101.84;;;27.69;50.29
9676;BME280;4876;42.656;23.292;2023-07-20T09:20:51;94095.41;;;27.79;50.03
9676;BME280;4876;42.656;23.292;2023-07-20T09:23:18;94088.63;;;27.87;49.44
9676;BME280;4876;42.656;23.292;2023-07-20T09:25:47;94085.50;;;27.89;49.67
9676;BME280;4876;42.656;23.292;2023-07-20T09:28:16;94087.97;;;27.83;48.66
9676;BME280;4876;42.656;23.292;2023-07-20T09:30:44;94078.03;;;27.64;48.52
9676;BME280;4876;42.656;23.292;2023-07-20T09:33:18;94091.53;;;27.64;50.28
9676;BME280;4876;42.656;23.292;2023-07-20T09:35:45;94089.84;;;27.99;48.90
9676;BME280;4876;42.656;23.292;2023-07-20T09:38:14;94083.22;;;27.87;48.70
9676;BME280;4876;42.656;23.292;2023-07-20T09:40:41;94029.28;;;27.84;48.31
9676;BME280;4876;42.656;23.292;2023-07-20T09:43:09;94072.16;;;28.11;47.84
9676;BME280;4876;42.656;23.292;2023-07-20T09:45:39;94085.47;;;28.18;47.35
9676;BME280;4876;42.656;23.292;2023-07-20T09:48:08;94085.69;;;28.11;48.02
9676;BME280;4876;42.656;23.292;2023-07-20T09:50:39;94087.94;;;28.41;48.45
9676;BME280;4876;42.656;23.292;2023-07-20T09:53:07;94074.66;;;28.47;47.09
9676;BME280;4876;42.656;23.292;2023-07-20T09:55:36;94050.41;;;28.69;47.80
9676;BME280;4876;42.656;23.292;2023-07-20T09:58:05;94041.44;;;28.98;46.54
9676;BME280;4876;42.656;23.292;2023-07-20T10:00:35;93961.53;;;28.55;46.13
9676;BME280;4876;42.656;23.292;2023-07-20T10:03:03;94039.81;;;29.00;46.08
9676;BME280;4876;42.656;23.292;2023-07-20T10:05:33;94045.31;;;28.46;46.30
9676;BME280;4876;42.656;23.292;2023-07-20T10:08:01;94042.41;;;28.40;45.98
9676;BME280;4876;42.656;23.292;2023-07-20T10:10:31;94050.41;;;28.56;44.54
9676;BME280;4876;42.656;23.292;2023-07-20T10:13:00;94049.63;;;28.43;45.10
9676;BME280;4876;42.656;23.292;2023-07-20T10:15:30;94055.19;;;28.52;44.79
9676;BME280;4876;42.656;23.292;2023-07-20T10:18:02;94055.28;;;28.49;44.88
9676;BME280;4876;42.656;23.292;2023-07-20T10:20:32;94054.41;;;28.39;45.62
9676;BME280;4876;42.656;23.292;2023-07-20T10:23:00;94063.31;;;28.65;44.96
9676;BME280;4876;42.656;23.292;2023-07-20T10:25:28;94068.81;;;28.74;44.98
9676;BME280;4876;42.656;23.292;2023-07-20T10:27:55;94064.81;;;28.66;46.04
9676;BME280;4876;42.656;23.292;2023-07-20T10:30:24;94051.50;;;28.84;45.31
9676;BME280;4876;42.656;23.292;2023-07-20T10:32:52;94042.94;;;29.11;45.19
9676;BME280;4876;42.656;23.292;2023-07-20T10:35:19;94033.41;;;29.19;43.92
9676;BME280;4876;42.656;23.292;2023-07-20T10:37:49;94031.72;;;29.35;44.48
9676;BME280;4876;42.656;23.292;2023-07-20T10:40:30;94039.06;;;29.47;44.82
9676;BME280;4876;42.656;23.292;2023-07-20T10:43:05;94035.69;;;29.08;44.79
9676;BME280;4876;42.656;23.292;2023-07-20T10:45:39;94006.13;;;28.88;45.64
9676;BME280;4876;42.656;23.292;2023-07-20T10:48:08;93937.25;;;29.02;45.39
9676;BME280;4876;42.656;23.292;2023-07-20T10:50:40;93963.78;;;29.07;46.43
9676;BME280;4876;42.656;23.292;2023-07-20T10:53:12;93992.72;;;29.32;46.57
9676;BME280;4876;42.656;23.292;2023-07-20T10:55:39;93976.13;;;29.08;46.38
9676;BME280;4876;42.656;23.292;2023-07-20T10:58:07;93994.25;;;29.33;46.40
9676;BME280;4876;42.656;23.292;2023-07-20T11:00:35;93979.75;;;29.49;46.09
9676;BME280;4876;42.656;23.292;2023-07-20T11:03:02;93963.00;;;29.41;45.34
9676;BME280;4876;42.656;23.292;2023-07-20T11:05:33;93966.94;;;29.62;45.95
9676;BME280;4876;42.656;23.292;2023-07-20T11:08:00;93960.03;;;29.92;46.23
9676;BME280;4876;42.656;23.292;2023-07-20T11:10:30;93964.41;;;29.90;45.66
9676;BME280;4876;42.656;23.292;2023-07-20T11:13:20;93968.50;;;30.16;45.70
9676;BME280;4876;42.656;23.292;2023-07-20T11:16:01;93971.16;;;30.38;45.07
9676;BME280;4876;42.656;23.292;2023-07-20T11:18:29;93971.75;;;30.73;45.20
9676;BME280;4876;42.656;23.292;2023-07-20T11:20:57;93965.31;;;30.98;42.26
9676;BME280;4876;42.656;23.292;2023-07-20T11:23:24;93960.00;;;30.86;43.21
9676;BME280;4876;42.656;23.292;2023-07-20T11:25:52;93965.19;;;31.11;43.50
9676;BME280;4876;42.656;23.292;2023-07-20T11:28:19;93953.28;;;31.36;42.54
9676;BME280;4876;42.656;23.292;2023-07-20T11:30:52;93955.09;;;31.48;42.34
9676;BME280;4876;42.656;23.292;2023-07-20T11:33:19;93955.25;;;31.72;42.21
9676;BME280;4876;42.656;23.292;2023-07-20T11:35:46;93949.38;;;31.83;41.37
9676;BME280;4876;42.656;23.292;2023-07-20T11:38:13;93943.94;;;31.65;41.69
9676;BME280;4876;42.656;23.292;2023-07-20T11:40:42;93942.41;;;31.63;42.79
9676;BME280;4876;42.656;23.292;2023-07-20T11:43:12;93947.44;;;31.38;42.53
9676;BME280;4876;42.656;23.292;2023-07-20T11:45:39;93939.38;;;31.71;42.19
9676;BME280;4876;42.656;23.292;2023-07-20T11:48:06;93940.94;;;31.44;42.38
9676;BME280;4876;42.656;23.292;2023-07-20T11:50:38;93930.94;;;31.23;42.45
9676;BME280;4876;42.656;23.292;2023-07-20T11:53:07;93928.50;;;30.88;43.30
9676;BME280;4876;42.656;23.292;2023-07-20T11:55:34;93930.47;;;30.97;43.85
9676;BME280;4876;42.656;23.292;2023-07-20T11:58:02;93930.94;;;31.23;44.15
9676;BME280;4876;42.656;23.292;2023-07-20T12:00:31;93922.47;;;31.48;42.44
9676;BME280;4876;42.656;23.292;2023-07-20T12:02:58;93920.22;;;31.56;41.63
9676;BME280;4876;42.656;23.292;2023-07-20T12:05:25;93908.13;;;31.75;40.46
9676;BME280;4876;42.656;23.292;2023-07-20T12:07:53;93897.41;;;31.81;40.41
9676;BME280;4876;42.656;23.292;2023-07-20T12:10:25;93902.28;;;32.10;39.93
9676;BME280;4876;42.656;23.292;2023-07-20T12:12:52;93902.78;;;31.99;40.27
9676;BME280;4876;42.656;23.292;2023-07-20T12:15:21;93906.97;;;32.09;38.67
9676;BME280;4876;42.656;23.292;2023-07-20T12:17:51;93901.19;;;32.16;38.01
9676;BME280;4876;42.656;23.292;2023-07-20T12:20:26;93908.47;;;32.10;37.78
9676;BME280;4876;42.656;23.292;2023-07-20T12:22:52;93906.13;;;31.94;37.16
9676;BME280;4876;42.656;23.292;2023-07-20T12:25:19;93907.75;;;32.01;35.62
9676;BME280;4876;42.656;23.292;2023-07-20T12:27:47;93907.00;;;32.00;35.73
9676;BME280;4876;42.656;23.292;2023-07-20T12:30:14;93902.34;;;31.73;35.58
9676;BME280;4876;42.656;23.292;2023-07-20T12:32:41;93898.44;;;31.74;35.73
9676;BME280;4876;42.656;23.292;2023-07-20T12:35:09;93896.34;;;32.21;35.90
9676;BME280;4876;42.656;23.292;2023-07-20T12:37:37;93903.59;;;32.24;35.73
9676;BME280;4876;42.656;23.292;2023-07-20T12:40:04;93890.41;;;32.31;35.29
9676;BME280;4876;42.656;23.292;2023-07-20T12:42:36;93885.03;;;32.13;35.59
9676;BME280;4876;42.656;23.292;2023-07-20T12:45:05;93892.06;;;32.29;33.91
9676;BME280;4876;42.656;23.292;2023-07-20T12:47:32;93894.25;;;32.15;34.25
9676;BME280;4876;42.656;23.292;2023-07-20T12:49:59;93883.69;;;32.18;33.97
9676;BME280;4876;42.656;23.292;2023-07-20T12:52:27;93884.28;;;32.12;34.42
9676;BME280;4876;42.656;23.292;2023-07-20T12:54:54;93890.22;;;32.02;34.47
9676;BME280;4876;42.656;23.292;2023-07-20T12:57:21;93887.97;;;32.00;34.55
9676;BME280;4876;42.656;23.292;2023-07-20T12:59:48;93893.00;;;31.83;34.69
9676;BME280;4876;42.656;23.292;2023-07-20T13:02:14;93862.78;;;31.72;34.83
9676;BME280;4876;42.656;23.292;2023-07-20T13:04:41;93882.94;;;32.08;37.11
9676;BME280;4876;42.656;23.292;2023-07-20T13:07:10;93885.44;;;31.87;37.40
9676;BME280;4876;42.656;23.292;2023-07-20T13:09:39;93886.81;;;31.65;38.10
9676;BME280;4876;42.656;23.292;2023-07-20T13:12:06;93885.13;;;31.76;38.50
9676;BME280;4876;42.656;23.292;2023-07-20T13:14:33;93881.56;;;31.43;39.40
9676;BME280;4876;42.656;23.292;2023-07-20T13:17:00;93864.25;;;31.31;39.32